Time;durP1;ratioP1;P1;durP2;ratioP2;P2;SDS_P1;SDS_P2;PMS_P1;PMS_P2;Temp;Humidity;BMP_temperature;BMP_pressure;BME280_temperature;BME280_humidity;BME280_pressure;Samples;Min_cycle;Max_cycle;Signal;HPM_P1;HPM_P2
2023/07/19 00:00:23;;;;;;;;;;;24.20;99.90;;;;;;5162383;28;20055;-61
2023/07/19 00:02:55;;;;;;;5.30;2.08;;;24.20;99.90;;;;;;5182092;28;19916;-63
2023/07/19 00:05:26;;;;;;;1.88;1.67;;;24.10;99.90;;;;;;5165220;28;20050;-63
2023/07/19 00:08:00;;;;;;;3.00;1.45;;;24.10;99.90;;;;;;5166337;28;20388;-61
2023/07/19 00:10:31;;;;;;;3.17;1.90;;;24.10;99.90;;;;;;5166532;28;20034;-65
2023/07/19 00:13:03;;;;;;;4.45;1.48;;;24.10;99.90;;;;;;5180180;28;20033;-64
2023/07/19 00:15:34;;;;;;;2.63;1.52;;;24.00;99.90;;;;;;5181027;28;20243;-60
2023/07/19 00:18:05;;;;;;;2.05;1.60;;;24.00;99.90;;;;;;5182841;28;20042;-64
2023/07/19 00:20:36;;;;;;;2.08;1.58;;;23.90;99.90;;;;;;5184304;28;20033;-64
2023/07/19 00:23:13;;;;;;;4.10;1.75;;;23.90;99.90;;;;;;5182697;28;20334;-63
2023/07/19 00:25:46;;;;;;;1.90;1.30;;;23.90;99.90;;;;;;5182956;28;20041;-62
2023/07/19 00:28:18;;;;;;;6.80;1.73;;;23.90;99.90;;;;;;5167261;28;20052;-62
2023/07/19 00:30:57;;;;;;;1.92;1.55;;;24.00;99.90;;;;;;5180628;28;20314;-64
2023/07/19 00:33:31;;;;;;;2.90;2.47;;;24.10;99.90;;;;;;5150871;28;20048;-63
2023/07/19 00:36:03;;;;;;;5.45;2.00;;;24.20;99.90;;;;;;5165795;28;20040;-63
2023/07/19 00:38:34;;;;;;;1.90;1.75;;;24.30;99.90;;;;;;5165123;28;20038;-62
2023/07/19 00:41:05;;;;;;;2.90;1.48;;;24.50;99.90;;;;;;5186237;28;20040;-65
2023/07/19 00:43:39;;;;;;;3.75;2.05;;;24.60;99.90;;;;;;5150370;28;20048;-64
2023/07/19 00:46:18;;;;;;;3.10;2.00;;;24.70;99.90;;;;;;5162866;28;20036;-65
2023/07/19 00:48:52;;;;;;;3.05;2.03;;;24.80;99.90;;;;;;5149909;28;20051;-60
2023/07/19 00:51:24;;;;;;;3.30;1.90;;;24.90;48.30;;;;;;5183730;28;20030;-62
2023/07/19 00:53:56;;;;;;;2.30;1.90;;;24.90;21.90;;;;;;5182090;28;20387;-66
2023/07/19 00:56:28;;;;;;;2.47;1.88;;;25.10;1.00;;;;;;5164799;28;20038;-62
2023/07/19 00:59:01;;;;;;;5.22;1.88;;;25.20;1.00;;;;;;5165235;28;20045;-64
2023/07/19 01:01:33;;;;;;;3.33;1.50;;;25.10;1.00;;;;;;5240568;22;20304;-66
2023/07/19 01:04:05;;;;;;;2.78;2.33;;;25.10;1.00;;;;;;5204314;28;20052;-66
2023/07/19 01:06:37;;;;;;;2.40;1.77;;;25.00;1.00;;;;;;5189298;28;20041;-62
2023/07/19 01:09:13;;;;;;;4.68;2.03;;;25.00;1.00;;;;;;5189941;28;20032;-62
2023/07/19 01:11:47;;;;;;;2.00;1.70;;;24.90;1.00;;;;;;5222705;28;20037;-67
2023/07/19 01:14:19;;;;;;;5.45;1.98;;;24.80;1.00;;;;;;5204700;28;20029;-64
2023/07/19 01:16:52;;;;;;;5.60;2.10;;;24.70;1.00;;;;;;5203930;28;20043;-64
2023/07/19 01:19:25;;;;;;;3.17;2.00;;;24.60;1.00;;;;;;5188731;28;20025;-63
2023/07/19 01:22:05;;;;;;;2.43;2.03;;;24.60;1.00;;;;;;5189265;28;20025;-65
2023/07/19 01:24:42;;;;;;;3.00;1.75;;;24.50;1.00;;;;;;5224789;28;20039;-64
2023/07/19 01:27:15;;;;;;;2.97;2.25;;;24.60;1.00;;;;;;5209464;28;20062;-64
2023/07/19 01:29:46;;;;;;;2.60;1.92;;;24.60;1.00;;;;;;5209615;28;20048;-64
2023/07/19 01:32:18;;;;;;;5.43;2.20;;;24.60;1.00;;;;;;5213421;28;20306;-62
2023/07/19 01:34:49;;;;;;;3.72;2.03;;;24.60;1.00;;;;;;5195513;28;20021;-66
2023/07/19 01:37:20;;;;;;;2.05;1.77;;;24.60;1.00;;;;;;5205149;28;20039;-63
2023/07/19 01:39:54;;;;;;;3.30;1.73;;;24.60;1.00;;;;;;5187800;28;20364;-64
2023/07/19 01:42:26;;;;;;;2.95;2.08;;;24.60;1.00;;;;;;5203201;28;20291;-65
2023/07/19 01:44:59;;;;;;;1.60;1.50;;;24.60;1.00;;;;;;5172095;28;20203;-64
2023/07/19 01:47:30;;;;;;;3.28;1.95;;;24.50;1.00;;;;;;5171246;28;20040;-65
2023/07/19 01:50:03;;;;;;;3.03;1.90;;;24.40;1.00;;;;;;5184305;28;20252;-63
2023/07/19 01:52:38;;;;;;;3.08;1.63;;;24.40;1.00;;;;;;5184750;28;20051;-65
2023/07/19 01:55:10;;;;;;;3.78;2.63;;;24.30;1.00;;;;;;5183654;28;20211;-64
2023/07/19 01:57:44;;;;;;;2.70;2.10;;;24.10;1.00;;;;;;5219785;28;20021;-61
2023/07/19 02:00:16;;;;;;;3.65;1.90;;;23.80;1.00;;;;;;5187122;28;20036;-62
2023/07/19 02:02:51;;;;;;;5.47;1.88;;;23.50;62.20;;;;;;5182496;28;20039;-63
2023/07/19 02:05:22;;;;;;;5.07;2.28;;;23.20;99.90;;;;;;5182893;28;20033;-63
2023/07/19 02:07:58;;;;;;;2.67;1.98;;;23.00;99.90;;;;;;5221330;28;20254;-62
2023/07/19 02:10:30;;;;;;;2.80;1.90;;;22.90;99.90;;;;;;5219890;28;20169;-60
2023/07/19 02:13:01;;;;;;;2.83;1.83;;;22.80;99.90;;;;;;5222602;28;20036;-62
2023/07/19 02:15:38;;;;;;;2.10;1.80;;;22.60;1.00;;;;;;5200832;28;20043;-64
2023/07/19 02:18:09;;;;;;;2.47;1.95;;;22.50;1.00;;;;;;5204756;28;20028;-60
2023/07/19 02:20:51;;;;;;;2.88;1.70;;;22.40;1.00;;;;;;5204040;28;20340;-62
2023/07/19 02:23:23;;;;;;;2.35;1.70;;;22.30;1.00;;;;;;5204787;28;20025;-64
2023/07/19 02:25:57;;;;;;;2.42;2.20;;;22.20;41.90;;;;;;5187169;28;20029;-63
2023/07/19 02:28:28;;;;;;;4.18;2.10;;;22.10;99.90;;;;;;5187076;28;20044;-63
2023/07/19 02:30:59;;;;;;;4.50;1.77;;;22.00;99.90;;;;;;5177806;28;20264;-63
2023/07/19 02:33:31;;;;;;;3.22;2.20;;;21.90;1.00;;;;;;5166627;28;20037;-64
2023/07/19 02:36:05;;;;;;;2.55;2.00;;;21.80;1.00;;;;;;5199158;28;20322;-64
2023/07/19 02:38:39;;;;;;;2.92;2.25;;;21.70;99.90;;;;;;5167260;28;20390;-64
2023/07/19 02:41:12;;;;;;;2.40;2.00;;;21.60;99.90;;;;;;5166828;28;20199;-66
2023/07/19 02:43:43;;;;;;;2.70;1.77;;;21.40;1.00;;;;;;5200365;28;20031;-64
2023/07/19 02:46:15;;;;;;;2.03;1.70;;;21.40;1.00;;;;;;5163776;28;20032;-62
2023/07/19 02:48:46;;;;;;;2.03;1.60;;;21.40;1.00;;;;;;5199183;28;20048;-65
2023/07/19 02:51:18;;;;;;;3.28;1.80;;;21.40;1.00;;;;;;5171102;28;20033;-63
2023/07/19 02:53:49;;;;;;;4.10;1.60;;;21.50;99.90;;;;;;5184271;28;20044;-64
2023/07/19 02:56:20;;;;;;;4.85;1.85;;;21.50;99.90;;;;;;5190205;28;20037;-63
2023/07/19 02:58:55;;;;;;;6.20;1.90;;;21.60;93.60;;;;;;5185181;28;20316;-65
2023/07/19 03:01:30;;;;;;;3.13;1.80;;;21.70;1.00;;;;;;5179966;28;20046;-64
2023/07/19 03:04:06;;;;;;;3.53;1.63;;;21.80;1.00;;;;;;5214245;28;20027;-65
2023/07/19 03:06:39;;;;;;;3.40;2.08;;;21.90;1.00;;;;;;5221349;28;20298;-64
2023/07/19 03:09:13;;;;;;;2.60;1.60;;;21.90;1.00;;;;;;5212672;28;20042;-65
2023/07/19 03:11:45;;;;;;;4.38;1.83;;;22.00;1.00;;;;;;5206668;28;20603;-64
2023/07/19 03:14:21;;;;;;;2.30;1.83;;;22.00;1.00;;;;;;5221960;28;20206;-65
2023/07/19 03:16:52;;;;;;;4.72;2.10;;;22.10;1.00;;;;;;5219429;28;20035;-62
2023/07/19 03:19:23;;;;;;;2.13;1.73;;;22.20;99.90;;;;;;5220271;28;20497;-64
2023/07/19 03:22:02;;;;;;;5.57;1.70;;;22.30;99.90;;;;;;5253242;28;20036;-61
2023/07/19 03:24:34;;;;;;;3.03;2.45;;;22.50;99.90;;;;;;5201665;28;20245;-62
2023/07/19 03:27:05;;;;;;;2.85;2.00;;;22.70;97.40;;;;;;5214091;28;20017;-64
2023/07/19 03:29:40;;;;;;;5.03;1.67;;;22.90;1.00;;;;;;5255288;28;20028;-64
2023/07/19 03:32:13;;;;;;;;;;;23.00;1.00;;;;;;5207404;28;20029;-66
2023/07/19 03:34:45;;;;;;;2.28;1.63;;;23.10;1.00;;;;;;5240952;28;20065;-62
2023/07/19 03:37:16;;;;;;;4.65;2.00;;;23.20;1.00;;;;;;5225498;28;20033;-65
2023/07/19 03:39:47;;;;;;;4.63;2.25;;;23.30;1.00;;;;;;5217125;28;20052;-62
2023/07/19 03:42:19;;;;;;;1.77;1.45;;;23.40;1.00;;;;;;5205723;28;20037;-66
2023/07/19 03:44:50;;;;;;;5.35;1.95;;;23.50;1.00;;;;;;5238476;28;20047;-65
2023/07/19 03:47:27;;;;;;;2.97;1.67;;;23.60;1.00;;;;;;5243337;28;20039;-64
2023/07/19 03:49:59;;;;;;;3.25;1.58;;;23.60;1.00;;;;;;5228477;28;20031;-65
2023/07/19 03:52:34;;;;;;;2.45;1.80;;;23.70;1.00;;;;;;5226465;28;20038;-64
2023/07/19 03:55:09;;;;;;;2.03;1.52;;;23.70;1.00;;;;;;5260445;28;20361;-62
2023/07/19 03:57:41;;;;;;;2.58;1.70;;;23.80;1.00;;;;;;5214603;28;20382;-65
2023/07/19 04:00:15;;;;;;;3.28;1.85;;;23.50;1.00;;;;;;5231619;28;20040;-63
2023/07/19 04:02:46;;;;;;;2.72;1.90;;;23.10;1.00;;;;;;5215517;28;20040;-61
2023/07/19 04:05:18;;;;;;;2.65;1.92;;;22.80;1.00;;;;;;5208686;28;20250;-63
2023/07/19 04:07:50;;;;;;;2.45;1.80;;;22.70;1.00;;;;;;5222764;28;20195;-64
2023/07/19 04:10:22;;;;;;;3.20;1.70;;;22.80;1.00;;;;;;5222798;28;20051;-63
2023/07/19 04:12:54;;;;;;;3.22;2.05;;;22.90;1.00;;;;;;5259521;28;20032;-62
2023/07/19 04:15:25;;;;;;;2.55;1.73;;;23.10;1.00;;;;;;5222057;28;20145;-64
2023/07/19 04:17:56;;;;;;;2.58;1.70;;;23.20;1.00;;;;;;5224146;28;20306;-62
2023/07/19 04:20:31;;;;;;;5.35;1.80;;;23.30;1.00;;;;;;5224693;28;20043;-64
2023/07/19 04:23:03;;;;;;;2.50;1.77;;;23.40;1.00;;;;;;5223548;28;20047;-65
2023/07/19 04:25:35;;;;;;;2.30;1.23;;;23.50;1.00;;;;;;5205550;28;20033;-64
2023/07/19 04:28:06;;;;;;;3.28;1.55;;;23.50;1.00;;;;;;5206647;28;20033;-64
2023/07/19 04:30:40;;;;;;;4.88;2.67;;;23.50;1.00;;;;;;5236433;28;20033;-62
2023/07/19 04:33:12;;;;;;;2.83;1.60;;;23.60;1.00;;;;;;5204730;28;20037;-64
2023/07/19 04:35:44;;;;;;;4.35;1.75;;;23.60;1.00;;;;;;5202739;28;20035;-65
2023/07/19 04:38:16;;;;;;;3.20;2.25;;;23.70;1.00;;;;;;5219551;28;20219;-65
2023/07/19 04:40:47;;;;;;;3.97;2.05;;;23.70;1.00;;;;;;5185623;28;20052;-66
2023/07/19 04:43:18;;;;;;;2.22;1.52;;;23.70;1.00;;;;;;5202191;28;20041;-63
2023/07/19 04:45:52;;;;;;;3.42;2.08;;;23.80;1.00;;;;;;5211534;28;20025;-63
2023/07/19 04:48:23;;;;;;;2.08;1.85;;;23.90;1.00;;;;;;5239061;28;20237;-63
2023/07/19 04:50:58;;;;;;;3.42;1.75;;;23.90;1.00;;;;;;5239824;28;20304;-61
2023/07/19 04:53:30;;;;;;;2.58;1.42;;;23.90;1.00;;;;;;5221911;28;20337;-62
2023/07/19 04:56:01;;;;;;;2.83;1.83;;;23.90;1.00;;;;;;5205848;28;20150;-66
2023/07/19 04:58:32;;;;;;;3.83;1.83;;;24.00;1.00;;;;;;5226179;28;20247;-63
2023/07/19 05:01:08;;;;;;;6.57;1.88;;;24.10;1.00;;;;;;5235534;28;20045;-63
2023/07/19 05:03:40;;;;;;;3.33;2.05;;;24.20;1.00;;;;;;5253206;28;20049;-64
2023/07/19 05:06:11;;;;;;;2.97;1.73;;;24.20;1.00;;;;;;5237953;28;20035;-65
2023/07/19 05:08:46;;;;;;;3.38;1.90;;;24.30;1.00;;;;;;5238307;28;20047;-61
2023/07/19 05:11:19;;;;;;;2.30;1.60;;;24.20;1.00;;;;;;5252882;28;20039;-66
2023/07/19 05:13:51;;;;;;;2.55;1.73;;;24.30;1.00;;;;;;5236234;28;20033;-64
2023/07/19 05:16:28;;;;;;;2.78;1.63;;;24.30;1.00;;;;;;5219912;28;20029;-63
2023/07/19 05:18:59;;;;;;;5.15;2.08;;;24.40;1.00;;;;;;5253565;28;20044;-65
2023/07/19 05:21:32;;;;;;;2.42;1.52;;;24.50;1.00;;;;;;5236628;28;20033;-62
2023/07/19 05:24:12;;;;;;;3.80;2.15;;;24.60;1.00;;;;;;5253407;28;20205;-65
2023/07/19 05:26:48;;;;;;;3.50;2.17;;;24.70;1.00;;;;;;5220573;28;20278;-62
2023/07/19 05:29:20;;;;;;;2.80;1.90;;;24.80;1.00;;;;;;5237921;28;20021;-63
2023/07/19 05:31:54;;;;;;;4.00;2.15;;;24.90;1.00;;;;;;5269354;28;20206;-64
2023/07/19 05:34:34;;;;;;;3.22;1.92;;;24.90;1.00;;;;;;5252991;28;20045;-65
2023/07/19 05:37:06;;;;;;;2.38;1.70;;;24.90;1.00;;;;;;5219834;28;20298;-64
2023/07/19 05:39:38;;;;;;;3.92;2.13;;;24.80;1.00;;;;;;5219812;28;20045;-64
2023/07/19 05:42:10;;;;;;;1.92;1.73;;;24.90;1.00;;;;;;5236504;28;20029;-62
2023/07/19 05:44:44;;;;;;;3.40;2.10;;;24.90;1.00;;;;;;5252764;28;20189;-61
2023/07/19 05:47:23;;;;;;;2.42;1.77;;;25.00;1.00;;;;;;5268707;28;20039;-63
2023/07/19 05:49:54;;;;;;;2.67;1.55;;;25.10;1.00;;;;;;5252300;28;20040;-65
2023/07/19 05:52:29;;;;;;;2.95;1.85;;;25.20;1.00;;;;;;5252712;28;20044;-63
2023/07/19 05:55:03;;;;;;;3.70;1.73;;;25.30;1.00;;;;;;5252895;28;20029;-65
2023/07/19 05:57:37;;;;;;;3.40;1.87;;;25.50;1.00;;;;;;5218762;28;20028;-63
2023/07/19 06:00:28;;;;;;;2.88;1.85;;;25.70;1.00;;;;;;5251495;28;20292;-62
2023/07/19 06:02:59;;;;;;;3.85;2.10;;;25.90;99.90;;;;;;5208659;28;20048;-64
2023/07/19 06:05:34;;;;;;;2.53;2.20;;;25.90;99.90;;;;;;5233631;28;20040;-64
2023/07/19 06:08:05;;;;;;;3.92;1.95;;;25.90;99.90;;;;;;5225730;28;20028;-64
2023/07/19 06:10:38;;;;;;;2.75;2.10;;;26.00;99.90;;;;;;5244220;28;20040;-64
2023/07/19 06:13:13;;;;;;;2.05;1.75;;;26.10;99.90;;;;;;5242427;28;20036;-64
2023/07/19 06:15:50;;;;;;;2.58;1.63;;;26.20;99.90;;;;;;5222279;28;20037;-65
2023/07/19 06:18:28;;;;;;;5.65;2.65;;;26.30;99.90;;;;;;5225904;28;20220;-63
2023/07/19 06:20:59;;;;;;;2.30;1.58;;;26.40;99.90;;;;;;5241691;28;20044;-62
2023/07/19 06:23:30;;;;;;;2.47;2.00;;;26.50;99.90;;;;;;5244420;28;20413;-62
2023/07/19 06:26:02;;;;;;;5.68;2.13;;;26.50;99.90;;;;;;5238806;28;20321;-64
2023/07/19 06:28:37;;;;;;;2.83;1.75;;;26.60;99.90;;;;;;5243939;28;20027;-64
2023/07/19 06:31:08;;;;;;;5.93;2.08;;;26.70;99.90;;;;;;5214672;28;20467;-64
2023/07/19 06:33:39;;;;;;;3.00;2.20;;;26.60;36.10;;;;;;5223417;28;20206;-65
2023/07/19 06:36:11;;;;;;;3.63;1.80;;;26.70;1.00;;;;;;5204136;28;20286;-65
2023/07/19 06:38:43;;;;;;;3.50;2.20;;;26.80;1.00;;;;;;5204932;28;20039;-61
2023/07/19 06:41:15;;;;;;;3.60;1.75;;;26.90;1.00;;;;;;5254470;28;20049;-65
2023/07/19 06:43:48;;;;;;;4.07;2.20;;;27.00;1.00;;;;;;5254420;28;20039;-65
2023/07/19 06:46:22;;;;;;;6.88;1.92;;;27.20;1.00;;;;;;5201114;28;20237;-63
2023/07/19 06:48:56;;;;;;;3.03;2.20;;;27.00;1.00;;;;;;5237934;28;20191;-62
2023/07/19 06:51:27;;;;;;;4.28;2.22;;;26.90;1.00;;;;;;5237105;28;20037;-66
2023/07/19 06:54:00;;;;;;;2.58;1.83;;;26.80;1.00;;;;;;5204197;28;20036;-65
2023/07/19 06:56:31;;;;;;;3.20;2.08;;;26.70;1.00;;;;;;5202864;28;20053;-66
2023/07/19 06:59:04;;;;;;;3.00;1.98;;;26.70;1.00;;;;;;5220138;28;20088;-64
2023/07/19 07:01:35;;;;;;;5.40;2.33;;;26.80;1.00;;;;;;5228349;28;20045;-63
2023/07/19 07:04:08;;;;;;;4.10;2.08;;;27.00;1.00;;;;;;5166284;28;20041;-64
2023/07/19 07:06:43;;;;;;;3.75;2.47;;;27.50;1.00;;;;;;5199058;28;20025;-65
2023/07/19 07:09:14;;;;;;;3.03;1.80;;;27.60;1.00;;;;;;5166316;28;20340;-67
2023/07/19 07:11:48;;;;;;;3.78;1.80;;;27.50;1.00;;;;;;5167339;28;20047;-64
2023/07/19 07:14:19;;;;;;;4.33;2.00;;;27.80;1.00;;;;;;5166426;28;20036;-62
2023/07/19 07:16:53;;;;;;;3.47;1.85;;;28.10;1.00;;;;;;5198314;28;20282;-63
2023/07/19 07:19:25;;;;;;;4.65;1.67;;;28.20;1.00;;;;;;5199423;28;20034;-61
2023/07/19 07:22:02;;;;;;;4.35;1.98;;;28.60;1.00;;;;;;5166975;28;20285;-64
2023/07/19 07:24:34;;;;;;;2.83;1.90;;;28.70;1.00;;;;;;5183615;28;20028;-63
2023/07/19 07:27:06;;;;;;;3.03;1.77;;;28.30;1.00;;;;;;5193800;28;20450;-65
2023/07/19 07:29:41;;;;;;;2.70;2.00;;;28.30;99.90;;;;;;5198074;28;20204;-63
2023/07/19 07:32:12;;;;;;;2.22;1.77;;;28.20;99.90;;;;;;5190445;28;20021;-66
2023/07/19 07:34:44;;;;;;;1.58;1.45;;;27.90;99.90;;;;;;5203709;28;20352;-65
2023/07/19 07:37:15;;;;;;;3.40;1.90;;;27.90;99.90;;;;;;5183092;28;20348;-66
2023/07/19 07:39:46;;;;;;;2.95;1.95;;;27.80;99.90;;;;;;5199769;28;20040;-64
2023/07/19 07:42:20;;;;;;;3.63;1.80;;;27.80;99.90;;;;;;5183638;28;20306;-63
2023/07/19 07:44:53;;;;;;;3.72;1.98;;;27.80;99.90;;;;;;5169609;28;20222;-64
2023/07/19 07:47:25;;;;;;;3.63;1.80;;;27.80;99.90;;;;;;5196552;28;20307;-63
2023/07/19 07:49:57;;;;;;;2.33;1.98;;;28.00;99.90;;;;;;5183943;28;20036;-68
2023/07/19 07:52:34;;;;;;;2.55;1.70;;;28.00;99.90;;;;;;5184439;28;20033;-65
2023/07/19 07:55:08;;;;;;;2.60;1.85;;;27.80;99.90;;;;;;5166854;28;20056;-64
2023/07/19 07:57:40;;;;;;;2.58;1.75;;;27.80;99.90;;;;;;5163740;28;20041;-64
2023/07/19 08:00:14;;;;;;;2.97;1.98;;;27.60;99.90;;;;;;5175753;28;20353;-65
2023/07/19 08:02:46;;;;;;;4.22;1.80;;;27.60;99.90;;;;;;5213671;28;20187;-63
2023/07/19 08:05:17;;;;;;;3.72;1.67;;;27.80;99.90;;;;;;5221589;28;20017;-63
2023/07/19 08:07:54;;;;;;;3.85;1.77;;;27.90;99.90;;;;;;5203123;28;20322;-63
2023/07/19 08:10:25;;;;;;;3.00;1.92;;;28.10;99.90;;;;;;5186218;28;20264;-63
2023/07/19 08:13:00;;;;;;;3.20;1.70;;;28.10;99.90;;;;;;5203729;28;20037;-62
2023/07/19 08:15:36;;;;;;;4.05;1.95;;;27.90;99.90;;;;;;5182790;28;20028;-60
2023/07/19 08:18:10;;;;;;;3.38;2.03;;;27.60;99.90;;;;;;5186632;28;20029;-65
2023/07/19 08:20:42;;;;;;;2.13;1.83;;;27.50;99.90;;;;;;5188741;28;20044;-62
2023/07/19 08:23:13;;;;;;;3.05;1.83;;;27.50;99.90;;;;;;5207207;28;20312;-63
2023/07/19 08:25:44;;;;;;;2.55;1.75;;;27.80;99.90;;;;;;5207386;28;20031;-66
2023/07/19 08:28:18;;;;;;;2.47;1.63;;;27.80;99.90;;;;;;5243831;28;20036;-63
2023/07/19 08:30:50;;;;;;;3.72;1.90;;;27.80;99.90;;;;;;5222950;28;20358;-63
2023/07/19 08:33:28;;;;;;;5.75;1.90;;;27.80;99.90;;;;;;5190595;28;20051;-66
2023/07/19 08:36:00;;;;;;;3.30;1.73;;;27.80;99.90;;;;;;5225212;28;20210;-63
2023/07/19 08:38:34;;;;;;;3.13;1.83;;;27.90;99.90;;;;;;5224002;28;20309;-65
2023/07/19 08:41:11;;;;;;;2.78;1.45;;;28.10;99.90;;;;;;5190275;28;20043;-64
2023/07/19 08:43:44;;;;;;;3.70;1.63;;;28.50;99.90;;;;;;5207227;28;20225;-59
2023/07/19 08:46:18;;;;;;;4.80;1.73;;;28.80;99.90;;;;;;5186623;28;20238;-60
2023/07/19 08:48:49;;;;;;;3.88;2.33;;;29.00;99.90;;;;;;5223602;28;20115;-64
2023/07/19 08:51:22;;;;;;;1.83;1.67;;;29.40;99.90;;;;;;5223474;28;20029;-61
2023/07/19 08:53:59;;;;;;;1.92;1.60;;;29.20;99.90;;;;;;5189905;28;20039;-62
2023/07/19 08:56:34;;;;;;;2.10;1.50;;;29.30;99.90;;;;;;5223694;28;20253;-62
2023/07/19 08:59:08;;;;;;;;;;;29.70;99.90;;;;;;5222439;28;20025;-60
2023/07/19 09:01:43;;;;;;;2.38;2.15;;;29.60;99.90;;;;;;5190523;28;19920;-61
2023/07/19 09:04:14;;;;;;;1.95;1.33;;;29.60;99.90;;;;;;5210630;28;20054;-64
2023/07/19 09:06:57;;;;;;;2.33;1.52;;;29.90;99.90;;;;;;5245557;28;20339;-61
2023/07/19 09:09:28;;;;;;;2.50;1.75;;;30.00;99.90;;;;;;5195234;28;20039;-60
2023/07/19 09:11:59;;;;;;;3.85;1.95;;;30.00;99.90;;;;;;5224491;28;20036;-62
2023/07/19 09:14:37;;;;;;;3.13;2.00;;;30.20;99.90;;;;;;5207546;28;20051;-63
2023/07/19 09:17:10;;;;;;;2.45;1.88;;;30.10;99.90;;;;;;5223729;28;20205;-61
2023/07/19 09:19:42;;;;;;;1.95;1.60;;;30.10;99.90;;;;;;5210615;28;20051;-61
2023/07/19 09:22:16;;;;;;;3.45;1.73;;;29.90;99.90;;;;;;5210747;28;20058;-62
2023/07/19 09:25:01;;;;;;;3.38;1.60;;;30.30;99.90;;;;;;5240909;28;20329;-60
2023/07/19 09:27:38;;;;;;;4.05;2.00;;;30.10;99.90;;;;;;5229427;28;20043;-61
2023/07/19 09:30:16;;;;;;;2.75;1.83;;;29.90;99.90;;;;;;5186382;28;20036;-62
2023/07/19 09:32:59;;;;;;;2.47;1.98;;;29.90;99.90;;;;;;5222166;28;20037;-62
2023/07/19 09:35:30;;;;;;;2.25;1.70;;;29.80;99.90;;;;;;5219669;28;20033;-62
2023/07/19 09:38:02;;;;;;;2.15;1.77;;;29.80;99.90;;;;;;5223130;28;20043;-62
2023/07/19 09:40:33;;;;;;;3.72;1.77;;;30.00;99.90;;;;;;5205344;28;20051;-63
2023/07/19 09:43:12;;;;;;;5.30;2.45;;;30.10;99.90;;;;;;5224627;28;20291;-63
2023/07/19 09:45:48;;;;;;;3.65;1.77;;;30.10;99.90;;;;;;5228532;28;20039;-63
2023/07/19 09:48:22;;;;;;;3.17;1.92;;;29.90;99.90;;;;;;5222176;28;20050;-62
2023/07/19 09:51:02;;;;;;;3.00;1.80;;;29.80;99.90;;;;;;5221122;28;20031;-63
2023/07/19 09:53:40;;;;;;;2.40;1.90;;;29.40;99.90;;;;;;5232301;28;20025;-62
2023/07/19 09:56:11;;;;;;;4.55;1.92;;;29.00;99.90;;;;;;5243374;28;20039;-63
2023/07/19 09:58:43;;;;;;;4.15;1.95;;;28.70;99.90;;;;;;5204525;28;20276;-61
2023/07/19 10:01:15;;;;;;;2.00;1.50;;;28.50;99.90;;;;;;5186697;28;20047;-60
2023/07/19 10:03:46;;;;;;;6.10;2.00;;;28.70;99.90;;;;;;5172399;28;20029;-61
2023/07/19 10:06:18;;;;;;;3.10;1.63;;;28.90;99.90;;;;;;5194828;28;20029;-62
2023/07/19 10:09:11;;;;;;;4.03;1.88;;;29.10;99.90;;;;;;5204997;28;20610;-61
2023/07/19 10:11:42;;;;;;;2.95;1.58;;;29.20;99.90;;;;;;5223011;28;20087;-62
2023/07/19 10:14:25;;;;;;;2.42;1.45;;;29.30;99.90;;;;;;5187684;28;20310;-61
2023/07/19 10:17:01;;;;;;;1.92;1.60;;;29.30;99.90;;;;;;5185218;28;20033;-64
2023/07/19 10:19:36;;;;;;;4.90;2.30;;;29.60;99.90;;;;;;5188355;28;20037;-61
2023/07/19 10:22:13;;;;;;;3.13;1.73;;;29.90;99.90;;;;;;5188803;28;20059;-64
2023/07/19 10:25:03;;;;;;;2.13;1.52;;;30.10;99.90;;;;;;5204737;28;20037;-62
2023/07/19 10:27:37;;;;;;;2.13;1.58;;;30.60;99.90;;;;;;5176853;28;20029;-62
2023/07/19 10:30:09;;;;;;;2.55;1.90;;;30.90;99.90;;;;;;5164490;28;20033;-63
2023/07/19 10:32:41;;;;;;;2.08;1.65;;;31.20;99.90;;;;;;5197085;28;20034;-62
2023/07/19 10:35:31;;;;;;;5.32;2.22;;;31.60;99.90;;;;;;5184664;28;20327;-61
2023/07/19 10:38:04;;;;;;;2.92;1.85;;;31.70;99.90;;;;;;5200251;28;20044;-61
2023/07/19 10:40:35;;;;;;;2.90;1.77;;;32.10;99.90;;;;;;5217049;28;20041;-60
2023/07/19 10:43:07;;;;;;;2.55;1.45;;;32.30;99.90;;;;;;5199829;28;20033;-61
2023/07/19 10:45:40;;;;;;;4.88;2.05;;;31.80;99.90;;;;;;5180067;28;20029;-60
2023/07/19 10:48:14;;;;;;;2.60;1.75;;;31.50;99.90;;;;;;5183762;28;20040;-63
2023/07/19 10:50:48;;;;;;;3.25;1.80;;;31.60;99.90;;;;;;5184049;28;20043;-60
2023/07/19 10:53:23;;;;;;;6.72;2.00;;;31.80;99.90;;;;;;5183370;28;20029;-61
2023/07/19 10:55:55;;;;;;;3.92;1.80;;;32.00;99.90;;;;;;5199069;28;20341;-61
2023/07/19 10:58:27;;;;;;;3.83;1.80;;;34.00;99.90;;;;;;5221527;28;20043;-62
2023/07/19 11:01:02;;;;;;;4.30;2.22;;;36.30;1.00;;;;;;5218883;28;20286;-60
2023/07/19 11:03:35;;;;;;;4.80;1.65;;;37.90;1.00;;;;;;5232946;28;20045;-63
2023/07/19 11:06:10;;;;;;;2.15;1.58;;;37.50;1.00;;;;;;5171657;28;20020;-61
2023/07/19 11:08:41;;;;;;;3.95;2.50;;;36.90;1.00;;;;;;5220346;28;20039;-63
2023/07/19 11:11:13;;;;;;;6.53;2.40;;;36.30;1.00;;;;;;5187700;28;20046;-63
2023/07/19 11:13:51;;;;;;;3.85;2.28;;;36.30;1.00;;;;;;5220978;28;20033;-62
2023/07/19 11:16:26;;;;;;;2.70;1.70;;;36.50;1.00;;;;;;5201530;28;20277;-64
2023/07/19 11:19:00;;;;;;;3.72;2.10;;;35.70;1.00;;;;;;5204660;28;20033;-60
2023/07/19 11:21:33;;;;;;;;;;;35.00;1.00;;;;;;5222573;28;20048;-62
2023/07/19 11:24:05;;;;;;;4.13;1.77;;;34.20;1.00;;;;;;5220742;28;19905;-62
2023/07/19 11:26:51;;;;;;;5.43;2.03;;;34.90;1.00;;;;;;5202630;28;20221;-63
2023/07/19 11:29:29;;;;;;;2.20;2.00;;;35.10;1.00;;;;;;5222530;28;20028;-61
2023/07/19 11:32:23;;;;;;;2.17;1.75;;;34.30;1.00;;;;;;5218139;28;20029;-63
2023/07/19 11:35:02;;;;;;;2.80;1.83;;;34.60;1.00;;;;;;5188313;28;20186;-61
2023/07/19 11:37:38;;;;;;;4.13;1.92;;;34.60;1.00;;;;;;5222511;28;20268;-63
2023/07/19 11:40:16;;;;;;;2.83;1.83;;;34.80;1.00;;;;;;5222237;28;20314;-60
2023/07/19 11:42:58;;;;;;;3.05;2.00;;;35.10;1.00;;;;;;5185620;28;20041;-64
2023/07/19 11:45:31;;;;;;;2.58;1.52;;;35.70;1.00;;;;;;5184360;28;20041;-62
2023/07/19 11:48:05;;;;;;;2.43;1.90;;;35.60;1.00;;;;;;5184833;28;20035;-62
2023/07/19 11:50:38;;;;;;;3.45;2.42;;;35.40;1.00;;;;;;5204559;28;20028;-62
2023/07/19 11:53:12;;;;;;;2.43;1.67;;;35.70;1.00;;;;;;5220766;28;20445;-63
2023/07/19 11:55:47;;;;;;;4.60;2.13;;;35.60;1.00;;;;;;5207084;28;20037;-63
2023/07/19 11:58:18;;;;;;;3.00;1.90;;;35.00;1.00;;;;;;5226031;28;20028;-64
2023/07/19 12:00:50;;;;;;;2.97;2.03;;;35.50;1.00;;;;;;5222853;28;20037;-63
2023/07/19 12:03:22;;;;;;;4.22;2.13;;;36.20;1.00;;;;;;5208095;28;20052;-63
2023/07/19 12:05:56;;;;;;;4.90;2.15;;;36.10;1.00;;;;;;5223254;28;20281;-61
2023/07/19 12:08:30;;;;;;;2.53;1.95;;;36.00;1.00;;;;;;5182047;28;20250;-62
2023/07/19 12:11:02;;;;;;;;;;;36.20;1.00;;;;;;5191302;28;20250;-63
2023/07/19 12:13:34;;;;;;;2.67;2.00;;;36.40;1.00;;;;;;5186116;28;19909;-65
2023/07/19 12:16:09;;;;;;;3.33;2.00;;;36.40;1.00;;;;;;5200449;28;20063;-62
2023/07/19 12:18:45;;;;;;;4.30;2.20;;;36.80;1.00;;;;;;5172001;28;20357;-64
2023/07/19 12:21:19;;;;;;;3.15;2.38;;;36.50;1.00;;;;;;5203423;28;20176;-61
2023/07/19 12:23:53;;;;;;;1.77;1.67;;;36.10;1.00;;;;;;5221454;28;20139;-60
2023/07/19 12:26:26;;;;;;;2.33;1.83;;;36.50;1.00;;;;;;5191668;28;20041;-62
2023/07/19 12:29:00;;;;;;;3.97;2.23;;;37.10;1.00;;;;;;5191028;28;20321;-61
2023/07/19 12:31:31;;;;;;;2.78;2.03;;;37.00;1.00;;;;;;5188806;28;20036;-64
2023/07/19 12:34:02;;;;;;;4.70;2.28;;;36.00;1.00;;;;;;5224804;28;20033;-63
2023/07/19 12:36:40;;;;;;;2.63;2.05;;;36.70;1.00;;;;;;5241260;28;20047;-61
2023/07/19 12:39:14;;;;;;;3.00;2.47;;;36.20;1.00;;;;;;5208166;28;20047;-63
2023/07/19 12:41:55;;;;;;;;;;;36.90;1.00;;;;;;5191726;28;20047;-65
2023/07/19 12:44:26;;;;;;;4.57;2.08;;;37.00;1.00;;;;;;5224321;28;19919;-64
2023/07/19 12:46:58;;;;;;;3.63;1.90;;;36.40;1.00;;;;;;5188095;28;20248;-63
2023/07/19 12:49:32;;;;;;;2.58;2.25;;;36.10;1.00;;;;;;5208377;28;20037;-63
2023/07/19 12:52:06;;;;;;;2.58;2.00;;;35.50;1.00;;;;;;5226948;28;20415;-64
2023/07/19 12:54:38;;;;;;;2.42;2.15;;;36.00;1.00;;;;;;5208032;28;20033;-62
2023/07/19 12:57:12;;;;;;;4.35;2.30;;;35.80;1.00;;;;;;5225495;28;20237;-62
2023/07/19 12:59:43;;;;;;;;;;;35.50;1.00;;;;;;5186870;28;20037;-62
2023/07/19 13:02:17;;;;;;;4.90;2.55;;;35.90;1.00;;;;;;5215199;28;20150;-63
2023/07/19 13:04:51;;;;;;;3.78;2.53;;;35.80;1.00;;;;;;5190990;28;20029;-61
2023/07/19 13:07:29;;;;;;;2.63;2.13;;;35.10;1.00;;;;;;5206635;28;20063;-61
2023/07/19 13:10:04;;;;;;;3.10;2.42;;;34.80;1.00;;;;;;5222686;28;20063;-60
2023/07/19 13:12:35;;;;;;;2.35;1.98;;;35.20;1.00;;;;;;5207908;28;20474;-62
2023/07/19 13:15:09;;;;;;;2.05;1.73;;;34.90;1.00;;;;;;5205457;28;20267;-64
2023/07/19 13:17:47;;;;;;;2.80;2.00;;;35.10;1.00;;;;;;5191471;28;20025;-64
2023/07/19 13:20:23;;;;;;;3.30;2.50;;;35.50;1.00;;;;;;5225946;28;20029;-61
2023/07/19 13:22:54;;;;;;;3.03;2.00;;;35.30;1.00;;;;;;5203922;28;20041;-60
2023/07/19 13:25:26;;;;;;;2.70;2.47;;;36.20;1.00;;;;;;5213856;28;20037;-63
2023/07/19 13:27:57;;;;;;;7.05;2.47;;;36.40;1.00;;;;;;5224010;28;20300;-64